Time,TemperatureF,DewpointF,PressureIn,WindDirection,WindDirectionDegrees,WindSpeedMPH,WindSpeedGustMPH,Humidity,HourlyPrecipIn,Conditions,Clouds,dailyrainin,SolarRadiationWatts/m^2,SoftwareType,DateUTC
2013-03-25 00:02:00,63.0,1.0,-100.00,North,10,5.0,11.0,8,0.00,,,0.00,1.000000,,2013-03-25 04:02:00,
2013-03-25 00:33:00,61.0,2.0,-100.00,NNW,348,4.0,8.0,9,0.00,,,0.00,1.000000,,2013-03-25 04:33:00,
2013-03-25 00:43:00,61.0,2.0,-100.00,NNW,348,4.0,8.0,9,0.00,,,0.00,1.000000,,2013-03-25 04:43:00,
2013-03-25 00:52:00,61.0,2.0,-100.00,NNW,348,4.0,8.0,9,0.00,,,0.00,1.000000,,2013-03-25 04:52:00,
2013-03-25 01:02:00,61.0,2.0,-100.00,NNW,348,4.0,8.0,9,0.00,,,0.00,1.000000,,2013-03-25 05:02:00,
2013-03-25 01:33:00,62.0,5.0,-100.00,SSW,207,5.0,10.0,10,0.00,,,0.00,1.000000,,2013-03-25 05:33:00,
2013-03-25 01:42:00,62.0,5.0,-100.00,SSW,207,5.0,10.0,10,0.00,,,0.00,1.000000,,2013-03-25 05:42:00,
2013-03-25 01:52:00,62.0,5.0,-100.00,SSW,207,5.0,10.0,10,0.00,,,0.00,1.000000,,2013-03-25 05:52:00,
2013-03-25 02:02:00,62.0,5.0,-100.00,SSW,207,5.0,10.0,10,0.00,,,0.00,1.000000,,2013-03-25 06:02:00,
2013-03-25 02:33:00,54.0,6.0,-100.00,NW,318,4.0,6.0,14,0.00,,,0.00,1.000000,,2013-03-25 06:33:00,
2013-03-25 02:42:00,54.0,6.0,-100.00,NW,318,4.0,6.0,14,0.00,,,0.00,1.000000,,2013-03-25 06:42:00,
2013-03-25 02:52:00,54.0,6.0,-100.00,NW,318,4.0,6.0,14,0.00,,,0.00,1.000000,,2013-03-25 06:52:00,
2013-03-25 03:02:00,54.0,6.0,-100.00,NW,318,4.0,6.0,14,0.00,,,0.00,1.000000,,2013-03-25 07:02:00,
2013-03-25 03:32:00,55.0,7.0,-100.00,East,91,4.0,6.0,14,0.00,,,0.00,1.000000,,2013-03-25 07:32:00,
2013-03-25 03:42:00,55.0,7.0,-100.00,East,91,4.0,6.0,14,0.00,,,0.00,1.000000,,2013-03-25 07:42:00,
2013-03-25 03:52:00,55.0,7.0,-100.00,East,91,4.0,6.0,14,0.00,,,0.00,1.000000,,2013-03-25 07:52:00,
2013-03-25 04:02:00,55.0,7.0,-100.00,East,91,4.0,6.0,14,0.00,,,0.00,1.000000,,2013-03-25 08:02:00,
2013-03-25 04:32:00,50.0,6.0,-100.00,NNE,32,4.0,7.0,16,0.00,,,0.00,1.000000,,2013-03-25 08:32:00,
2013-03-25 04:43:00,50.0,6.0,-100.00,NNE,32,4.0,7.0,16,0.00,,,0.00,1.000000,,2013-03-25 08:43:00,
2013-03-25 04:52:00,50.0,6.0,-100.00,NNE,32,4.0,7.0,16,0.00,,,0.00,1.000000,,2013-03-25 08:52:00,
2013-03-25 05:02:00,50.0,6.0,-100.00,NNE,32,4.0,7.0,16,0.00,,,0.00,1.000000,,2013-03-25 09:02:00,
2013-03-25 05:33:00,51.0,8.0,-100.00,NE,50,2.0,7.0,17,0.00,,,0.00,1.000000,,2013-03-25 09:33:00,
2013-03-25 05:43:00,51.0,8.0,-100.00,NE,50,2.0,7.0,17,0.00,,,0.00,1.000000,,2013-03-25 09:43:00,
2013-03-25 05:52:00,51.0,8.0,-100.00,NE,50,2.0,7.0,17,0.00,,,0.00,1.000000,,2013-03-25 09:52:00,
2013-03-25 06:02:00,51.0,8.0,-100.00,NE,50,2.0,7.0,17,0.00,,,0.00,1.000000,,2013-03-25 10:02:00,
2013-03-25 06:33:00,47.0,11.0,-100.00,NNE,33,4.0,7.0,23,0.00,,,0.00,1.000000,,2013-03-25 10:33:00,
2013-03-25 06:42:00,47.0,11.0,-100.00,NNE,33,4.0,7.0,23,0.00,,,0.00,1.000000,,2013-03-25 10:42:00,
2013-03-25 06:53:00,47.0,11.0,-100.00,NNE,33,4.0,7.0,23,0.00,,,0.00,1.000000,,2013-03-25 10:53:00,
2013-03-25 07:02:00,47.0,11.0,-100.00,NNE,33,4.0,7.0,23,0.00,,,0.00,1.000000,,2013-03-25 11:02:00,
2013-03-25 07:32:00,46.0,11.0,-100.00,NNE,21,4.0,7.0,24,0.00,,,-99.99,1.000000,,2013-03-25 11:32:00,
2013-03-25 07:42:00,46.0,11.0,-100.00,NNE,21,4.0,7.0,24,0.00,,,-99.99,1.000000,,2013-03-25 11:42:00,
2013-03-25 07:52:00,46.0,11.0,-100.00,NNE,21,4.0,7.0,24,0.00,,,-99.99,1.000000,,2013-03-25 11:52:00,
2013-03-25 08:02:00,46.0,11.0,-100.00,NNE,21,4.0,7.0,24,0.00,,,-99.99,1.000000,,2013-03-25 12:02:00,
2013-03-25 08:33:00,47.0,9.0,-100.00,South,173,1.0,6.0,21,0.00,,,0.00,1.000000,,2013-03-25 12:33:00,
2013-03-25 08:43:00,47.0,9.0,-100.00,South,173,1.0,6.0,21,0.00,,,0.00,1.000000,,2013-03-25 12:43:00,
2013-03-25 08:53:00,47.0,9.0,-100.00,South,173,1.0,6.0,21,0.00,,,0.00,1.000000,,2013-03-25 12:53:00,
2013-03-25 09:02:00,47.0,9.0,-100.00,South,173,1.0,6.0,21,0.00,,,0.00,1.000000,,2013-03-25 13:02:00,
2013-03-25 09:32:00,48.0,12.0,-100.00,East,101,2.0,4.0,23,0.00,,,0.00,1.000000,,2013-03-25 13:32:00,
2013-03-25 09:43:00,48.0,12.0,-100.00,East,101,2.0,4.0,23,0.00,,,0.00,1.000000,,2013-03-25 13:43:00,
2013-03-25 09:52:00,48.0,12.0,-100.00,East,101,2.0,4.0,23,0.00,,,0.00,1.000000,,2013-03-25 13:52:00,
2013-03-25 10:02:00,48.0,12.0,-100.00,East,101,2.0,4.0,23,0.00,,,0.00,1.000000,,2013-03-25 14:02:00,
2013-03-25 10:32:00,49.0,14.0,-100.00,ENE,72,1.0,4.0,24,0.00,,,0.00,33.000000,,2013-03-25 14:32:00,
2013-03-25 10:43:00,49.0,14.0,-100.00,ENE,72,1.0,4.0,24,0.00,,,0.00,33.000000,,2013-03-25 14:43:00,
2013-03-25 10:52:00,49.0,14.0,-100.00,ENE,72,1.0,4.0,24,0.00,,,0.00,33.000000,,2013-03-25 14:52:00,
2013-03-25 11:02:00,49.0,14.0,-100.00,ENE,72,1.0,4.0,24,0.00,,,0.00,33.000000,,2013-03-25 15:02:00,
2013-03-25 11:33:00,61.0,14.0,-100.00,West,277,3.0,4.0,16,0.00,,,0.00,230.000000,,2013-03-25 15:33:00,
2013-03-25 11:43:00,61.0,14.0,-100.00,West,277,3.0,4.0,16,0.00,,,0.00,230.000000,,2013-03-25 15:43:00,
2013-03-25 11:53:00,61.0,14.0,-100.00,West,277,3.0,4.0,16,0.00,,,0.00,230.000000,,2013-03-25 15:53:00,
2013-03-25 12:03:00,61.0,14.0,-100.00,West,277,3.0,4.0,16,0.00,,,0.00,230.000000,,2013-03-25 16:03:00,
2013-03-25 12:33:00,67.0,15.0,-100.00,WNW,296,4.0,7.0,13,0.00,,,0.00,454.000000,,2013-03-25 16:33:00,
2013-03-25 12:43:00,67.0,15.0,-100.00,WNW,296,4.0,7.0,13,0.00,,,0.00,454.000000,,2013-03-25 16:43:00,
2013-03-25 12:52:00,67.0,15.0,-100.00,WNW,296,4.0,7.0,13,0.00,,,0.00,454.000000,,2013-03-25 16:52:00,
2013-03-25 13:02:00,67.0,15.0,-100.00,WNW,296,4.0,7.0,13,0.00,,,0.00,454.000000,,2013-03-25 17:02:00,
2013-03-25 13:33:00,72.0,12.0,-100.00,WNW,282,4.0,7.0,10,0.00,,,-99.99,656.000000,,2013-03-25 17:33:00,
2013-03-25 13:43:00,72.0,12.0,-100.00,WNW,282,4.0,7.0,10,0.00,,,-99.99,656.000000,,2013-03-25 17:43:00,
2013-03-25 13:52:00,72.0,12.0,-100.00,WNW,282,4.0,7.0,10,0.00,,,-99.99,656.000000,,2013-03-25 17:52:00,
2013-03-25 14:03:00,72.0,12.0,-100.00,WNW,282,4.0,7.0,10,0.00,,,-99.99,656.000000,,2013-03-25 18:03:00,
2013-03-25 14:33:00,76.0,10.0,-100.00,SW,227,5.0,10.0,8,0.00,,,0.00,812.000000,,2013-03-25 18:33:00,
2013-03-25 14:43:00,76.0,10.0,-100.00,SW,227,5.0,10.0,8,0.00,,,0.00,812.000000,,2013-03-25 18:43:00,
2013-03-25 14:53:00,76.0,10.0,-100.00,SW,227,5.0,10.0,8,0.00,,,0.00,812.000000,,2013-03-25 18:53:00,
2013-03-25 15:02:00,76.0,10.0,-100.00,SW,227,5.0,10.0,8,0.00,,,0.00,812.000000,,2013-03-25 19:02:00,
2013-03-25 15:33:00,78.0,12.0,-100.00,SW,236,5.0,11.0,8,0.00,,,0.00,910.000000,,2013-03-25 19:33:00,
2013-03-25 15:43:00,78.0,12.0,-100.00,SW,236,5.0,11.0,8,0.00,,,0.00,910.000000,,2013-03-25 19:43:00,
2013-03-25 15:52:00,78.0,12.0,-100.00,SW,236,5.0,11.0,8,0.00,,,0.00,910.000000,,2013-03-25 19:52:00,
2013-03-25 16:02:00,78.0,12.0,-100.00,SW,236,5.0,11.0,8,0.00,,,0.00,910.000000,,2013-03-25 20:02:00,
2013-03-25 16:32:00,80.0,13.0,-100.00,SSW,203,5.0,11.0,8,0.00,,,0.00,940.000000,,2013-03-25 20:32:00,
2013-03-25 16:42:00,80.0,13.0,-100.00,SSW,203,5.0,11.0,8,0.00,,,0.00,940.000000,,2013-03-25 20:42:00,
2013-03-25 16:52:00,80.0,13.0,-100.00,SSW,203,5.0,11.0,8,0.00,,,0.00,940.000000,,2013-03-25 20:52:00,
2013-03-25 17:02:00,80.0,13.0,-100.00,SSW,203,5.0,11.0,8,0.00,,,0.00,940.000000,,2013-03-25 21:02:00,
2013-03-25 17:33:00,80.0,13.0,-100.00,West,274,5.0,13.0,8,0.00,,,0.00,899.000000,,2013-03-25 21:33:00,
2013-03-25 17:43:00,80.0,13.0,-100.00,West,274,5.0,13.0,8,0.00,,,0.00,899.000000,,2013-03-25 21:43:00,
2013-03-25 17:52:00,80.0,13.0,-100.00,West,274,5.0,13.0,8,0.00,,,0.00,899.000000,,2013-03-25 21:52:00,
2013-03-25 18:03:00,80.0,13.0,-100.00,West,274,5.0,13.0,8,0.00,,,0.00,899.000000,,2013-03-25 22:03:00,
2013-03-25 18:33:00,81.0,14.0,-100.00,SW,214,6.0,27.0,8,0.00,,,0.00,792.000000,,2013-03-25 22:33:00,
2013-03-25 18:42:00,81.0,14.0,-100.00,SW,214,6.0,27.0,8,0.00,,,0.00,792.000000,,2013-03-25 22:42:00,
2013-03-25 18:52:00,81.0,14.0,-100.00,SW,214,6.0,27.0,8,0.00,,,0.00,792.000000,,2013-03-25 22:52:00,
2013-03-25 19:02:00,81.0,14.0,-100.00,SW,214,6.0,27.0,8,0.00,,,0.00,792.000000,,2013-03-25 23:02:00,
2013-03-25 19:33:00,81.0,14.0,-100.00,SSE,153,5.0,14.0,8,0.00,,,0.00,627.000000,,2013-03-25 23:33:00,
2013-03-25 19:43:00,81.0,14.0,-100.00,SSE,153,5.0,14.0,8,0.00,,,0.00,627.000000,,2013-03-25 23:43:00,
2013-03-25 19:52:00,81.0,14.0,-100.00,SSE,153,5.0,14.0,8,0.00,,,0.00,627.000000,,2013-03-25 23:52:00,
2013-03-25 20:02:00,81.0,14.0,-100.00,SSE,153,5.0,14.0,8,0.00,,,0.00,627.000000,,2013-03-26 00:02:00,
2013-03-25 21:33:00,77.0,11.0,-100.00,WNW,291,8.0,17.0,8,-99.99,,,0.00,183.000000,,2013-03-26 01:33:00,
2013-03-25 21:42:00,77.0,11.0,-100.00,WNW,291,8.0,17.0,8,-99.99,,,0.00,183.000000,,2013-03-26 01:42:00,
2013-03-25 21:52:00,77.0,11.0,-100.00,WNW,291,8.0,17.0,8,-99.99,,,0.00,183.000000,,2013-03-26 01:52:00,
2013-03-25 22:02:00,77.0,11.0,-100.00,WNW,291,8.0,17.0,8,-99.99,,,0.00,183.000000,,2013-03-26 02:02:00,
2013-03-25 22:32:00,72.0,12.0,-100.00,West,279,7.0,16.0,10,0.00,,,0.00,17.000000,,2013-03-26 02:32:00,
2013-03-25 22:43:00,72.0,12.0,-100.00,West,279,7.0,16.0,10,0.00,,,0.00,17.000000,,2013-03-26 02:43:00,
2013-03-25 22:52:00,72.0,12.0,-100.00,West,279,7.0,16.0,10,0.00,,,0.00,17.000000,,2013-03-26 02:52:00,
2013-03-25 23:02:00,72.0,12.0,-100.00,West,279,7.0,16.0,10,0.00,,,0.00,17.000000,,2013-03-26 03:02:00,
2013-03-25 23:34:00,66.0,12.0,-100.00,North,3,4.0,8.0,12,0.00,,,0.00,1.000000,,2013-03-26 03:34:00,
2013-03-25 23:43:00,66.0,12.0,-100.00,North,3,4.0,8.0,12,0.00,,,0.00,1.000000,,2013-03-26 03:43:00,
2013-03-25 23:53:00,66.0,12.0,-100.00,North,3,4.0,8.0,12,0.00,,,0.00,1.000000,,2013-03-26 03:53:00,